createdAt,value
2023-02-19T00:02:04.629Z,1.50
2023-02-19T00:04:33.151Z,1.70
2023-02-19T00:07:01.493Z,1.70
2023-02-19T00:09:29.988Z,1.95
2023-02-19T00:11:58.370Z,1.80
2023-02-19T00:14:28.208Z,2.03
2023-02-19T00:16:56.602Z,1.92
2023-02-19T00:19:25.058Z,2.38
2023-02-19T00:21:54.357Z,1.95
2023-02-19T00:24:23.137Z,1.65
2023-02-19T00:26:51.497Z,2.03
2023-02-19T00:29:22.265Z,1.85
2023-02-19T00:31:52.106Z,2.15
2023-02-19T00:34:20.446Z,1.98
2023-02-19T00:36:48.947Z,2.05
2023-02-19T00:39:18.868Z,1.85
2023-02-19T00:41:47.779Z,1.90
2023-02-19T00:44:16.679Z,1.60
2023-02-19T00:46:47.600Z,1.60
2023-02-19T00:49:20.032Z,2.00
2023-02-19T00:51:49.168Z,1.55
2023-02-19T00:54:18.676Z,2.75
2023-02-19T00:56:47.191Z,2.85
2023-02-19T00:59:15.864Z,2.40
2023-02-19T01:01:45.680Z,1.83
2023-02-19T01:04:14.322Z,3.63
2023-02-19T01:06:44.091Z,1.92
2023-02-19T01:09:12.416Z,2.78
2023-02-19T01:11:40.925Z,2.45
2023-02-19T01:14:10.777Z,2.80
2023-02-19T01:16:39.396Z,1.58
2023-02-19T01:19:07.711Z,1.73
2023-02-19T01:21:36.020Z,1.33
2023-02-19T01:24:06.111Z,1.85
2023-02-19T01:26:34.952Z,1.70
2023-02-19T01:29:03.574Z,1.60
2023-02-19T01:31:32.285Z,1.60
2023-02-19T01:34:02.106Z,2.08
2023-02-19T01:36:31.542Z,1.77
2023-02-19T01:39:03.914Z,1.92
2023-02-19T01:41:36.549Z,2.28
2023-02-19T01:44:08.312Z,2.03
2023-02-19T01:46:37.756Z,1.77
2023-02-19T01:49:09.658Z,2.00
2023-02-19T01:51:42.914Z,1.70
2023-02-19T01:54:14.853Z,1.70
2023-02-19T01:56:46.931Z,1.70
2023-02-19T01:59:16.213Z,1.77
2023-02-19T02:01:44.622Z,1.65
2023-02-19T02:04:16.126Z,1.70
2023-02-19T02:06:49.687Z,1.65
2023-02-19T02:09:37.301Z,1.30
2023-02-19T02:12:07.478Z,1.52
2023-02-19T02:14:39.012Z,1.52
2023-02-19T02:17:16.580Z,1.63
2023-02-19T02:20:03.323Z,1.40
2023-02-19T02:22:38.212Z,1.45
2023-02-19T02:25:40.182Z,1.33
2023-02-19T02:28:32.418Z,1.17
2023-02-19T02:31:07.878Z,1.20
2023-02-19T02:33:42.597Z,1.35
2023-02-19T02:36:16.460Z,1.20
2023-02-19T02:38:47.530Z,1.10
2023-02-19T02:41:17.405Z,1.20
2023-02-19T02:43:45.734Z,1.10
2023-02-19T02:46:21.540Z,1.10
2023-02-19T02:48:55.665Z,0.70
2023-02-19T02:51:29.070Z,0.50
2023-02-19T02:54:21.703Z,0.50
2023-02-19T02:56:51.711Z,0.40
2023-02-19T02:59:24.921Z,0.98
2023-02-19T03:02:14.659Z,0.80
2023-02-19T03:05:11.510Z,0.90
2023-02-19T03:07:44.754Z,0.90
2023-02-19T03:10:18.590Z,1.10
2023-02-19T03:13:04.985Z,0.88
2023-02-19T03:15:56.075Z,1.25
2023-02-19T03:18:46.891Z,1.27
2023-02-19T03:21:18.607Z,1.23
2023-02-19T03:24:11.927Z,1.55
2023-02-19T03:26:42.803Z,1.67
2023-02-19T03:29:26.242Z,1.20
2023-02-19T03:31:58.300Z,1.25
2023-02-19T03:34:30.844Z,1.73
2023-02-19T03:37:05.943Z,1.73
2023-02-19T03:39:44.418Z,1.85
2023-02-19T03:42:22.376Z,1.50
2023-02-19T03:45:12.769Z,1.55
2023-02-19T03:47:51.048Z,1.63
2023-02-19T03:50:25.432Z,1.52
2023-02-19T03:53:01.940Z,1.63
2023-02-19T03:55:38.352Z,1.80
2023-02-19T03:58:11.139Z,1.85
2023-02-19T04:00:45.153Z,1.70
2023-02-19T04:03:19.990Z,1.80
2023-02-19T04:05:54.965Z,1.80
2023-02-19T04:08:25.699Z,1.70
2023-02-19T04:10:56.130Z,1.60
2023-02-19T04:13:27.896Z,1.65
2023-02-19T04:16:02.061Z,1.60
2023-02-19T04:18:35.204Z,1.60
2023-02-19T04:21:07.171Z,1.42
2023-02-19T04:23:39.789Z,1.60
2023-02-19T04:26:09.346Z,1.60
2023-02-19T04:28:38.980Z,1.20
2023-02-19T04:31:07.692Z,1.38
2023-02-19T04:33:36.313Z,1.10
2023-02-19T04:36:06.693Z,1.20
2023-02-19T04:38:35.059Z,1.10
2023-02-19T04:41:03.758Z,0.80
2023-02-19T04:43:32.120Z,0.70
2023-02-19T04:46:02.708Z,0.60
2023-02-19T04:48:31.321Z,0.60
2023-02-19T04:50:59.613Z,0.50
2023-02-19T04:53:29.395Z,0.60
2023-02-19T04:55:57.710Z,0.60
2023-02-19T04:58:25.978Z,0.43
2023-02-19T05:00:54.968Z,0.30
2023-02-19T05:03:23.392Z,0.40
2023-02-19T05:05:51.693Z,0.40
2023-02-19T05:08:20.092Z,0.52
2023-02-19T05:10:50.228Z,0.75
2023-02-19T05:13:18.581Z,0.50
2023-02-19T05:15:56.562Z,0.80
2023-02-19T05:18:25.039Z,1.25
2023-02-19T05:20:53.650Z,1.70
2023-02-19T05:23:23.088Z,1.85
2023-02-19T05:25:52.994Z,2.40
2023-02-19T05:28:28.712Z,2.50
2023-02-19T05:30:58.372Z,2.40
2023-02-19T05:33:27.827Z,2.40
2023-02-19T05:35:57.278Z,2.25
2023-02-19T05:38:26.439Z,1.98
2023-02-19T05:40:56.148Z,1.95
2023-02-19T05:43:24.481Z,1.73
2023-02-19T05:45:53.127Z,1.55
2023-02-19T05:48:21.379Z,1.52
2023-02-19T05:50:49.720Z,1.20
2023-02-19T05:53:18.310Z,1.40
2023-02-19T05:55:46.703Z,1.50
2023-02-19T05:58:16.369Z,1.63
2023-02-19T06:00:44.702Z,1.42
2023-02-19T06:03:13.056Z,1.63
2023-02-19T06:05:41.486Z,1.63
2023-02-19T06:08:09.761Z,1.77
2023-02-19T06:10:41.176Z,1.50
2023-02-19T06:13:10.130Z,1.88
2023-02-19T06:15:40.031Z,1.73
2023-02-19T06:18:08.383Z,1.40
2023-02-19T06:20:36.698Z,1.40
2023-02-19T06:23:05.091Z,1.80
2023-02-19T06:25:33.444Z,1.60
2023-02-19T06:28:01.752Z,1.27
2023-02-19T06:30:30.421Z,0.73
2023-02-19T06:33:00.180Z,0.63
2023-02-19T06:35:28.499Z,0.65
2023-02-19T06:37:56.832Z,0.57
2023-02-19T06:40:25.242Z,0.95
2023-02-19T06:42:53.595Z,0.50
2023-02-19T06:45:21.922Z,0.50
2023-02-19T06:47:50.304Z,0.35
2023-02-19T06:50:20.284Z,0.30
2023-02-19T06:52:48.640Z,0.28
2023-02-19T06:55:17.094Z,0.55
2023-02-19T06:57:45.461Z,0.40
2023-02-19T07:00:14.489Z,0.43
2023-02-19T07:02:42.938Z,0.52
2023-02-19T07:05:11.196Z,0.80
2023-02-19T07:07:40.999Z,0.80
2023-02-19T07:10:09.623Z,1.00
2023-02-19T07:12:38.169Z,1.02
2023-02-19T07:15:07.017Z,1.58
2023-02-19T07:17:35.675Z,1.30
2023-02-19T07:20:04.085Z,1.85
2023-02-19T07:22:32.491Z,1.70
2023-02-19T07:25:02.220Z,1.60
2023-02-19T07:27:30.520Z,1.80
2023-02-19T07:29:59.316Z,1.80
2023-02-19T07:32:27.719Z,1.80
2023-02-19T07:34:56.144Z,2.97
2023-02-19T07:37:24.464Z,1.33
2023-02-19T07:39:52.710Z,1.30
2023-02-19T07:42:22.845Z,1.08
2023-02-19T07:44:51.088Z,0.70
2023-02-19T07:47:19.383Z,0.70
2023-02-19T07:49:47.699Z,0.80
2023-02-19T07:52:16.132Z,0.85
2023-02-19T07:54:44.455Z,0.50
2023-02-19T07:57:13.024Z,0.90
2023-02-19T07:59:43.971Z,0.60
2023-02-19T08:02:35.156Z,0.30
2023-02-19T08:05:03.878Z,0.70
2023-02-19T08:07:39.708Z,0.50
2023-02-19T08:10:26.119Z,0.70
2023-02-19T08:13:15.895Z,1.00
2023-02-19T08:15:45.846Z,0.70
2023-02-19T08:18:15.501Z,0.85
2023-02-19T08:20:44.203Z,2.75
2023-02-19T08:23:13.169Z,1.00
2023-02-19T08:25:42.701Z,0.95
2023-02-19T08:28:12.898Z,0.65
2023-02-19T08:30:44.699Z,0.65
2023-02-19T08:33:16.620Z,0.77
2023-02-19T08:35:45.806Z,0.90
2023-02-19T08:38:17.252Z,0.93
2023-02-19T08:40:46.077Z,0.88
2023-02-19T08:43:16.342Z,0.80
2023-02-19T08:45:47.502Z,1.10
2023-02-19T08:48:17.297Z,1.20
2023-02-19T08:50:45.632Z,0.90
2023-02-19T08:53:14.245Z,1.15
2023-02-19T08:55:42.615Z,1.20
2023-02-19T08:58:12.542Z,0.70
2023-02-19T09:00:41.395Z,0.60
2023-02-19T09:03:10.193Z,0.80
2023-02-19T09:05:41.633Z,0.60
2023-02-19T09:08:10.662Z,1.10
2023-02-19T09:10:39.441Z,0.50
2023-02-19T09:13:08.228Z,0.70
2023-02-19T09:15:38.573Z,0.70
2023-02-19T09:18:07.041Z,0.50
2023-02-19T09:20:35.460Z,0.55
2023-02-19T09:23:05.208Z,0.70
2023-02-19T09:25:34.007Z,0.70
2023-02-19T09:28:02.416Z,0.70
2023-02-19T09:30:30.927Z,0.50
2023-02-19T09:32:59.223Z,0.60
2023-02-19T09:35:27.698Z,0.70
2023-02-19T09:37:56.058Z,0.60
2023-02-19T09:40:25.847Z,0.55
2023-02-19T09:42:54.203Z,0.90
2023-02-19T09:45:25.378Z,0.60
2023-02-19T09:47:57.647Z,0.60
2023-02-19T09:50:34.517Z,0.70
2023-02-19T09:53:06.058Z,0.70
2023-02-19T09:55:38.128Z,0.60
2023-02-19T09:58:16.727Z,0.60
2023-02-19T10:00:49.305Z,0.80
2023-02-19T10:03:25.729Z,0.70
2023-02-19T10:05:56.573Z,0.70
2023-02-19T10:08:24.868Z,0.77
2023-02-19T10:10:56.169Z,0.82
2023-02-19T10:13:30.858Z,0.80
2023-02-19T10:16:02.275Z,1.10
2023-02-19T10:18:37.885Z,1.10
2023-02-19T10:21:09.542Z,1.15
2023-02-19T10:23:38.186Z,1.40
2023-02-19T10:26:08.960Z,1.00
2023-02-19T10:28:37.796Z,0.90
2023-02-19T10:31:13.178Z,0.90
2023-02-19T10:33:51.873Z,0.93
2023-02-19T10:36:31.287Z,0.80
2023-02-19T10:39:01.786Z,0.80
2023-02-19T10:41:33.190Z,0.90
2023-02-19T10:44:07.904Z,0.90
2023-02-19T10:46:39.056Z,0.60
2023-02-19T10:49:25.596Z,0.90
2023-02-19T10:51:54.889Z,0.90
2023-02-19T10:54:28.845Z,1.00
2023-02-19T10:57:25.808Z,0.95
2023-02-19T10:59:58.303Z,0.40
2023-02-19T11:02:27.595Z,0.40
2023-02-19T11:05:18.611Z,0.65
2023-02-19T11:07:50.750Z,0.50
2023-02-19T11:10:29.055Z,0.40
2023-02-19T11:13:01.646Z,0.20
2023-02-19T11:15:32.721Z,3.67
2023-02-19T11:18:06.185Z,0.30
2023-02-19T11:20:35.071Z,0.40
2023-02-19T11:23:14.534Z,0.40
2023-02-19T11:25:47.899Z,0.40
2023-02-19T11:28:32.724Z,1.40
2023-02-19T11:31:25.037Z,0.80
2023-02-19T11:33:58.751Z,3.78
2023-02-19T11:36:30.697Z,0.40
2023-02-19T11:39:02.676Z,0.50
2023-02-19T11:42:01.295Z,0.30
2023-02-19T11:44:41.288Z,0.35
2023-02-19T11:47:34.227Z,0.30
2023-02-19T11:50:11.428Z,0.50
2023-02-19T11:52:48.040Z,0.40
2023-02-19T11:55:25.227Z,0.60
2023-02-19T11:58:05.467Z,0.68
2023-02-19T12:00:43.124Z,0.88
2023-02-19T12:03:58.753Z,0.50
2023-02-19T12:06:39.133Z,0.40
2023-02-19T12:09:39.803Z,0.68
2023-02-19T12:12:32.021Z,0.93
2023-02-19T12:15:20.477Z,0.73
2023-02-19T12:18:08.372Z,0.80
2023-02-19T12:20:46.123Z,0.95
2023-02-19T12:23:37.983Z,0.80
2023-02-19T12:26:16.317Z,1.40
2023-02-19T12:29:01.866Z,0.70
2023-02-19T12:32:00.363Z,0.77
2023-02-19T12:34:52.194Z,0.60
2023-02-19T12:37:34.858Z,0.70
2023-02-19T12:40:27.547Z,0.60
2023-02-19T12:43:10.185Z,0.40
2023-02-19T12:45:44.418Z,0.47
2023-02-19T12:48:20.091Z,0.57
2023-02-19T12:50:57.029Z,0.60
2023-02-19T12:53:37.366Z,0.43
2023-02-19T12:56:10.929Z,0.70
2023-02-19T13:01:15.515Z,0.52
2023-02-19T13:03:52.487Z,0.55
2023-02-19T13:06:36.565Z,0.73
2023-02-19T13:09:13.343Z,0.90
2023-02-19T13:11:45.887Z,1.00
2023-02-19T13:14:23.251Z,0.90
2023-02-19T13:16:57.901Z,1.30
2023-02-19T13:19:26.308Z,0.80
2023-02-19T13:22:20.992Z,0.70
2023-02-19T13:24:50.957Z,0.60
2023-02-19T13:30:41.673Z,0.50
2023-02-19T13:33:28.035Z,0.70
2023-02-19T13:36:15.313Z,0.60
2023-02-19T13:38:48.370Z,0.57
2023-02-19T13:41:30.227Z,0.80
2023-02-19T13:44:02.617Z,0.68
2023-02-19T13:46:41.068Z,0.70
2023-02-19T13:49:45.772Z,0.73
2023-02-19T13:52:38.661Z,0.60
2023-02-19T13:55:44.358Z,0.90
2023-02-19T13:58:40.434Z,0.68
2023-02-19T14:01:10.829Z,0.77
2023-02-19T14:03:50.865Z,0.80
2023-02-19T14:06:19.403Z,0.73
2023-02-19T14:08:50.720Z,1.00
2023-02-19T14:11:41.252Z,0.80
2023-02-19T14:14:36.026Z,0.80
2023-02-19T14:17:26.112Z,0.80
2023-02-19T14:19:58.407Z,1.40
2023-02-19T14:22:49.992Z,0.90
2023-02-19T14:25:38.445Z,1.40
2023-02-19T14:28:18.518Z,0.77
2023-02-19T14:30:52.348Z,0.63
2023-02-19T14:33:25.070Z,0.60
2023-02-19T14:35:58.637Z,0.60
2023-02-19T14:38:30.382Z,0.80
2023-02-19T14:40:59.776Z,3.28
2023-02-19T14:43:30.048Z,0.90
2023-02-19T14:46:02.660Z,0.50
2023-02-19T14:48:34.928Z,0.60
2023-02-19T14:51:08.707Z,0.68
2023-02-19T14:53:41.226Z,0.65
2023-02-19T14:56:21.406Z,0.68
2023-02-19T14:59:07.851Z,0.70
2023-02-19T15:01:37.672Z,0.60
2023-02-19T15:04:06.437Z,1.80
2023-02-19T15:06:36.749Z,1.05
2023-02-19T15:09:08.097Z,1.30
2023-02-19T15:11:37.093Z,0.90
2023-02-19T15:14:08.271Z,0.98
2023-02-19T15:16:39.037Z,1.00
2023-02-19T15:19:10.890Z,0.90
2023-02-19T15:21:41.518Z,1.00
2023-02-19T15:24:10.042Z,1.02
2023-02-19T15:26:40.638Z,1.13
2023-02-19T15:29:13.239Z,1.27
2023-02-19T15:31:48.818Z,1.83
2023-02-19T15:34:20.474Z,1.70
2023-02-19T15:36:51.876Z,1.35
2023-02-19T15:39:25.888Z,1.00
2023-02-19T15:42:00.065Z,1.30
2023-02-19T15:44:45.069Z,1.42
2023-02-19T15:47:22.147Z,1.30
2023-02-19T15:49:57.289Z,1.15
2023-02-19T15:52:38.007Z,1.40
2023-02-19T15:55:17.773Z,1.48
2023-02-19T15:57:51.393Z,2.75
2023-02-19T16:00:22.778Z,1.73
2023-02-19T16:02:53.295Z,1.65
2023-02-19T16:05:27.993Z,2.33
2023-02-19T16:08:18.350Z,2.47
2023-02-19T16:10:58.509Z,2.60
2023-02-19T16:13:28.312Z,4.00
2023-02-19T16:16:05.337Z,4.35
2023-02-19T16:18:36.663Z,4.50
2023-02-19T16:21:10.370Z,2.88
2023-02-19T16:23:43.611Z,3.90
2023-02-19T16:26:12.411Z,3.95
2023-02-19T16:28:43.103Z,3.85
2023-02-19T16:31:14.187Z,3.53
2023-02-19T16:33:46.920Z,2.33
2023-02-19T16:36:26.617Z,3.80
2023-02-19T16:39:18.898Z,8.27
2023-02-19T16:42:17.399Z,2.97
2023-02-19T16:44:47.035Z,2.00
2023-02-19T16:47:34.346Z,2.17
2023-02-19T16:50:12.904Z,3.90
2023-02-19T16:52:52.556Z,3.33
2023-02-19T16:55:21.821Z,9.15
2023-02-19T16:57:51.110Z,7.85
2023-02-19T17:00:21.743Z,9.32
2023-02-19T17:02:52.638Z,12.25
2023-02-19T17:05:24.548Z,2.85
2023-02-19T17:07:52.923Z,2.35
2023-02-19T17:10:23.740Z,3.10
2023-02-19T17:12:52.496Z,2.65
2023-02-19T17:15:20.966Z,3.95
2023-02-19T17:17:49.630Z,2.90
2023-02-19T17:20:27.738Z,4.55
2023-02-19T17:22:56.138Z,4.30
2023-02-19T17:25:25.387Z,6.55
2023-02-19T17:27:53.914Z,4.30
2023-02-19T17:30:28.197Z,2.80
2023-02-19T17:32:56.610Z,2.70
2023-02-19T17:35:27.008Z,2.55
2023-02-19T17:37:55.861Z,2.53
2023-02-19T17:40:33.177Z,4.47
2023-02-19T17:43:02.488Z,2.83
2023-02-19T17:45:31.197Z,2.95
2023-02-19T17:48:00.218Z,3.15
2023-02-19T17:50:31.947Z,3.00
2023-02-19T17:53:01.049Z,3.80
2023-02-19T17:55:29.394Z,3.78
2023-02-19T17:57:58.193Z,3.25
2023-02-19T18:00:28.542Z,2.92
2023-02-19T18:02:57.556Z,2.33
2023-02-19T18:05:26.395Z,2.45
2023-02-19T18:07:56.569Z,2.25
2023-02-19T18:10:25.495Z,3.15
2023-02-19T18:12:54.148Z,3.50
2023-02-19T18:15:24.618Z,3.10
2023-02-19T18:17:53.243Z,2.30
2023-02-19T18:20:24.490Z,2.30
2023-02-19T18:22:53.015Z,2.40
2023-02-19T18:25:23.788Z,2.70
2023-02-19T18:27:52.770Z,2.95
2023-02-19T18:30:23.233Z,3.15
2023-02-19T18:32:52.926Z,3.90
2023-02-19T18:35:22.483Z,3.05
2023-02-19T18:37:52.951Z,3.90
2023-02-19T18:40:25.434Z,4.32
2023-02-19T18:42:54.331Z,4.30
2023-02-19T18:45:22.844Z,4.30
2023-02-19T18:47:52.062Z,4.60
2023-02-19T18:50:21.120Z,4.78
2023-02-19T18:52:49.669Z,4.28
2023-02-19T18:55:18.303Z,5.25
2023-02-19T18:57:49.368Z,5.05
2023-02-19T19:00:19.413Z,5.95
2023-02-19T19:02:50.797Z,8.23
2023-02-19T19:05:23.319Z,6.72
2023-02-19T19:07:52.901Z,6.70
2023-02-19T19:10:21.786Z,3.53
2023-02-19T19:12:52.380Z,6.65
2023-02-19T19:15:21.054Z,5.90
2023-02-19T19:17:49.717Z,6.00
2023-02-19T19:20:20.016Z,7.28
2023-02-19T19:22:50.862Z,8.50
2023-02-19T19:25:20.348Z,6.88
2023-02-19T19:27:50.723Z,8.35
2023-02-19T19:30:21.266Z,5.90
2023-02-19T19:32:51.448Z,4.53
2023-02-19T19:35:21.819Z,2.67
2023-02-19T19:37:50.252Z,2.17
2023-02-19T19:40:19.649Z,3.22
2023-02-19T19:42:49.084Z,1.40
2023-02-19T19:45:17.731Z,1.10
2023-02-19T19:47:48.976Z,1.52
2023-02-19T19:50:18.807Z,0.60
2023-02-19T19:52:47.686Z,0.50
2023-02-19T19:55:16.301Z,0.70
2023-02-19T19:57:44.878Z,1.13
2023-02-19T20:00:19.780Z,0.68
2023-02-19T20:02:50.332Z,0.95
2023-02-19T20:05:19.251Z,0.80
2023-02-19T20:07:47.914Z,1.73
2023-02-19T20:10:20.024Z,3.88
2023-02-19T20:12:49.157Z,2.55
2023-02-19T20:15:23.142Z,1.00
2023-02-19T20:17:53.258Z,0.80
2023-02-19T20:20:22.990Z,0.70
2023-02-19T20:22:52.039Z,0.90
2023-02-19T20:25:20.543Z,0.80
2023-02-19T20:27:50.126Z,1.02
2023-02-19T20:30:19.757Z,0.90
2023-02-19T20:32:48.458Z,0.80
2023-02-19T20:35:19.168Z,0.90
2023-02-19T20:37:49.523Z,0.95
2023-02-19T20:40:20.423Z,0.98
2023-02-19T20:42:49.049Z,1.10
2023-02-19T20:45:17.938Z,1.05
2023-02-19T20:47:46.434Z,1.17
2023-02-19T20:50:14.758Z,1.00
2023-02-19T20:52:44.737Z,1.40
2023-02-19T20:55:14.153Z,1.30
2023-02-19T20:57:42.634Z,1.33
2023-02-19T21:00:12.431Z,1.45
2023-02-19T21:02:42.970Z,1.58
2023-02-19T21:05:11.950Z,1.73
2023-02-19T21:07:40.508Z,1.80
2023-02-19T21:10:11.891Z,1.70
2023-02-19T21:12:40.928Z,1.80
2023-02-19T21:15:10.225Z,1.85
2023-02-19T21:17:39.323Z,1.90
2023-02-19T21:20:09.309Z,2.65
2023-02-19T21:22:38.278Z,2.25
2023-02-19T21:25:07.744Z,3.20
2023-02-19T21:27:38.000Z,3.03
2023-02-19T21:30:08.530Z,3.08
2023-02-19T21:32:38.545Z,4.15
2023-02-19T21:35:08.609Z,3.13
2023-02-19T21:37:38.604Z,3.70
2023-02-19T21:40:08.935Z,3.95
2023-02-19T21:42:39.356Z,3.20
2023-02-19T21:45:11.068Z,3.25
2023-02-19T21:47:39.620Z,3.40
2023-02-19T21:50:09.452Z,3.05
2023-02-19T21:52:38.006Z,1.80
2023-02-19T21:55:07.726Z,2.00
2023-02-19T21:57:36.546Z,1.73
2023-02-19T22:00:09.000Z,1.50
2023-02-19T22:02:38.874Z,1.15
2023-02-19T22:05:08.187Z,1.17
2023-02-19T22:07:36.447Z,1.30
2023-02-19T22:10:05.340Z,2.00
2023-02-19T22:12:33.607Z,1.90
2023-02-19T22:15:04.040Z,2.33
2023-02-19T22:17:33.849Z,2.80
2023-02-19T22:20:03.254Z,3.53
2023-02-19T22:22:32.678Z,3.78
2023-02-19T22:25:01.197Z,3.53
2023-02-19T22:27:30.241Z,4.18
2023-02-19T22:29:58.604Z,4.13
2023-02-19T22:32:27.072Z,4.30
2023-02-19T22:34:56.866Z,5.78
2023-02-19T22:37:27.018Z,5.47
2023-02-19T22:39:55.555Z,4.88
2023-02-19T22:42:24.530Z,5.50
2023-02-19T22:44:52.967Z,6.20
2023-02-19T22:47:21.318Z,6.20
2023-02-19T22:49:49.730Z,5.72
2023-02-19T22:52:19.909Z,5.80
2023-02-19T22:54:48.246Z,6.72
2023-02-19T22:57:16.643Z,6.75
2023-02-19T22:59:44.912Z,7.70
2023-02-19T23:02:13.849Z,7.03
2023-02-19T23:04:42.149Z,7.13
2023-02-19T23:07:10.511Z,6.55
2023-02-19T23:09:40.593Z,6.22
2023-02-19T23:12:11.357Z,7.43
2023-02-19T23:14:39.749Z,7.00
2023-02-19T23:17:08.433Z,6.82
2023-02-19T23:19:37.980Z,6.20
2023-02-19T23:22:06.679Z,6.57
2023-02-19T23:24:35.301Z,5.53
2023-02-19T23:27:05.500Z,5.20
2023-02-19T23:29:33.856Z,6.05
2023-02-19T23:32:02.307Z,5.22
2023-02-19T23:34:30.715Z,5.22
2023-02-19T23:36:59.724Z,4.53
2023-02-19T23:39:28.182Z,4.50
2023-02-19T23:41:58.726Z,4.25
2023-02-19T23:44:28.562Z,3.95
2023-02-19T23:46:56.952Z,3.90
2023-02-19T23:49:25.450Z,4.00
2023-02-19T23:51:53.836Z,3.78
2023-02-19T23:54:22.122Z,3.83
2023-02-19T23:56:50.527Z,3.92
2023-02-19T23:59:18.804Z,3.83
